createdAt,value
2023-01-17T06:05:19.063Z,1.75
2023-01-17T06:07:47.538Z,1.74
2023-01-17T06:10:15.656Z,1.74
2023-01-17T06:12:44.364Z,1.75
2023-01-17T06:15:12.660Z,1.81
2023-01-17T06:17:40.081Z,1.79
2023-01-17T06:20:08.904Z,1.79
2023-01-17T06:22:36.487Z,1.75
2023-01-17T06:25:03.130Z,1.74
2023-01-17T06:27:30.327Z,1.70
2023-01-17T06:29:56.915Z,1.67
2023-01-17T06:32:24.108Z,1.69
2023-01-17T06:34:50.737Z,1.75
2023-01-17T06:37:17.568Z,1.71
2023-01-17T06:39:45.001Z,1.66
2023-01-17T06:42:11.771Z,1.72
2023-01-17T06:44:39.093Z,1.70
2023-01-17T06:47:05.682Z,1.74
2023-01-17T06:49:33.252Z,1.75
2023-01-17T06:51:59.819Z,1.72
2023-01-17T06:54:27.342Z,1.71
2023-01-17T06:56:53.956Z,1.74
2023-01-17T06:59:21.517Z,1.80
2023-01-17T07:01:48.114Z,1.77
2023-01-17T07:04:15.453Z,1.76
2023-01-17T07:06:41.990Z,1.80
2023-01-17T07:09:09.162Z,1.74
2023-01-17T07:11:35.720Z,1.67
2023-01-17T07:14:02.853Z,1.65
2023-01-17T07:16:29.565Z,1.67
2023-01-17T07:18:58.397Z,1.66
2023-01-17T07:21:25.018Z,1.63
2023-01-17T07:23:52.163Z,1.60
2023-01-17T07:26:18.886Z,1.66
2023-01-17T07:28:46.111Z,1.70
2023-01-17T07:31:12.711Z,1.70
2023-01-17T07:33:39.940Z,1.64
2023-01-17T07:36:08.021Z,1.67
2023-01-17T07:38:35.672Z,1.63
2023-01-17T07:41:02.296Z,1.65
2023-01-17T07:43:29.356Z,1.62
2023-01-17T07:45:56.093Z,1.62
2023-01-17T07:48:25.052Z,1.65
2023-01-17T07:51:00.688Z,1.73
2023-01-17T07:53:30.525Z,1.71
2023-01-17T07:56:04.615Z,1.75
2023-01-17T07:58:32.705Z,1.77
2023-01-17T08:01:09.933Z,1.67
2023-01-17T08:03:40.372Z,1.62
2023-01-17T08:06:16.782Z,1.60
2023-01-17T08:08:44.263Z,1.54
2023-01-17T08:11:10.791Z,1.61
2023-01-17T08:13:37.983Z,1.68
2023-01-17T08:16:04.958Z,1.74
2023-01-17T08:18:32.341Z,1.71
2023-01-17T08:20:59.104Z,1.70
2023-01-17T08:23:26.416Z,1.70
2023-01-17T08:25:53.021Z,1.68
2023-01-17T08:28:20.633Z,1.74
2023-01-17T08:30:47.191Z,1.72
2023-01-17T08:33:14.380Z,1.74
2023-01-17T08:35:50.316Z,1.81
2023-01-17T08:38:17.507Z,1.74
2023-01-17T08:40:44.418Z,1.78
2023-01-17T08:43:11.708Z,1.82
2023-01-17T08:45:38.349Z,1.85
2023-01-17T08:48:05.640Z,1.86
2023-01-17T08:50:32.174Z,1.84
2023-01-17T08:53:01.272Z,1.81
2023-01-17T08:55:28.593Z,1.81
2023-01-17T08:57:57.325Z,1.69
2023-01-17T09:00:23.962Z,1.66
2023-01-17T09:02:53.377Z,1.64
2023-01-17T09:05:20.174Z,1.71
2023-01-17T09:07:47.345Z,1.77
2023-01-17T09:10:13.941Z,1.80
2023-01-17T09:12:40.776Z,1.85
2023-01-17T09:15:07.957Z,1.88
2023-01-17T09:17:34.547Z,1.89
2023-01-17T09:20:01.749Z,1.88
2023-01-17T09:22:28.288Z,1.91
2023-01-17T09:24:55.463Z,1.96
2023-01-17T09:27:22.008Z,1.97
2023-01-17T09:29:49.252Z,1.99
2023-01-17T09:32:17.029Z,2.02
2023-01-17T09:34:46.113Z,2.02
2023-01-17T09:37:12.787Z,2.07
2023-01-17T09:39:39.984Z,2.17
2023-01-17T09:42:20.753Z,2.24
2023-01-17T09:44:53.501Z,2.22
2023-01-17T09:47:44.595Z,2.17
2023-01-17T09:50:20.922Z,2.21
2023-01-17T09:52:47.637Z,2.20
2023-01-17T09:55:16.177Z,2.24
2023-01-17T09:57:53.001Z,2.12
2023-01-17T10:00:32.168Z,2.11
2023-01-17T10:03:17.220Z,2.10
2023-01-17T10:06:02.015Z,2.15
2023-01-17T10:09:00.984Z,2.24
2023-01-17T10:11:55.493Z,2.33
2023-01-17T10:14:40.787Z,2.36
2023-01-17T10:17:24.412Z,2.30
2023-01-17T10:20:11.823Z,2.24
2023-01-17T10:22:54.549Z,2.31
2023-01-17T10:25:39.325Z,2.34
2023-01-17T10:28:31.084Z,2.44
2023-01-17T10:31:06.559Z,2.51
2023-01-17T10:33:53.040Z,2.49
2023-01-17T10:36:29.944Z,2.48
2023-01-17T10:39:05.245Z,2.56
2023-01-17T10:41:38.287Z,2.71
2023-01-17T10:44:25.706Z,2.66
2023-01-17T10:47:03.997Z,2.77
2023-01-17T10:49:31.352Z,2.82
2023-01-17T10:52:33.203Z,2.84
2023-01-17T10:55:35.234Z,2.76
2023-01-17T10:58:03.144Z,2.70
2023-01-17T11:01:00.763Z,2.68
2023-01-17T11:03:28.624Z,2.76
2023-01-17T11:06:20.119Z,2.70
2023-01-17T11:08:54.641Z,2.73
2023-01-17T11:11:25.099Z,2.74
2023-01-17T11:13:54.789Z,2.77
2023-01-17T11:16:27.566Z,2.79
2023-01-17T11:19:21.611Z,2.78
2023-01-17T11:21:54.494Z,2.92
2023-01-17T11:24:31.204Z,2.98
2023-01-17T11:26:58.490Z,3.01
2023-01-17T11:29:39.053Z,2.92
2023-01-17T11:32:23.672Z,2.93
2023-01-17T11:35:21.560Z,2.97
2023-01-17T11:38:03.107Z,3.00
2023-01-17T11:40:42.439Z,2.91
2023-01-17T11:43:11.884Z,2.96
2023-01-17T11:45:39.635Z,2.94
2023-01-17T11:48:09.059Z,2.90
2023-01-17T11:50:37.870Z,2.88
2023-01-17T11:53:16.825Z,2.90
2023-01-17T11:55:59.908Z,2.96
2023-01-17T11:58:28.222Z,3.02
2023-01-17T12:01:21.479Z,3.05
2023-01-17T12:04:08.195Z,3.11
2023-01-17T12:07:00.398Z,3.09
2023-01-17T12:09:56.387Z,3.15
2023-01-17T12:13:14.824Z,3.18
2023-01-17T12:15:57.997Z,3.12
2023-01-17T12:18:40.572Z,3.10
2023-01-17T12:21:29.056Z,3.03
2023-01-17T12:24:23.996Z,3.11
2023-01-17T12:27:16.145Z,3.10
2023-01-17T12:30:17.329Z,3.10
2023-01-17T12:33:05.308Z,3.18
2023-01-17T12:35:39.852Z,3.26
2023-01-17T12:38:14.021Z,3.37
2023-01-17T12:40:56.767Z,3.41
2023-01-17T12:43:29.050Z,3.42
2023-01-17T12:45:56.563Z,3.32
2023-01-17T12:48:27.785Z,3.32
2023-01-17T12:51:03.144Z,3.29
2023-01-17T12:53:35.239Z,3.23
2023-01-17T12:56:17.069Z,3.17
2023-01-17T12:58:48.717Z,3.17
2023-01-17T13:01:40.221Z,3.13
2023-01-17T13:04:58.092Z,3.05
2023-01-17T13:07:56.403Z,3.13
2023-01-17T13:10:46.378Z,3.18
2023-01-17T13:13:26.267Z,3.12
2023-01-17T13:16:13.631Z,3.04
2023-01-17T13:18:52.035Z,3.03
2023-01-17T13:21:33.571Z,2.99
2023-01-17T13:24:01.929Z,2.98
2023-01-17T13:26:50.690Z,3.00
2023-01-17T13:29:42.395Z,3.14
2023-01-17T13:32:24.079Z,3.20
2023-01-17T13:35:23.188Z,3.18
2023-01-17T13:38:26.994Z,3.24
2023-01-17T13:41:06.983Z,3.29
2023-01-17T13:43:34.882Z,3.43
2023-01-17T13:46:03.706Z,3.47
2023-01-17T13:48:38.345Z,3.34
2023-01-17T13:51:10.425Z,3.36
2023-01-17T13:53:36.997Z,3.24
2023-01-17T13:56:19.022Z,3.30
2023-01-17T13:58:50.048Z,3.39
2023-01-17T14:01:23.503Z,3.50
2023-01-17T14:03:50.244Z,3.48
2023-01-17T14:06:37.784Z,3.42
2023-01-17T14:09:28.825Z,3.41
2023-01-17T14:11:57.552Z,3.57
2023-01-17T14:14:40.014Z,3.57
2023-01-17T14:17:29.130Z,3.67
2023-01-17T14:20:02.514Z,3.63
2023-01-17T14:22:33.279Z,3.68
2023-01-17T14:25:12.356Z,3.75
2023-01-17T14:27:41.968Z,3.81
2023-01-17T14:30:18.287Z,3.81
2023-01-17T14:33:04.550Z,3.71
2023-01-17T14:35:36.389Z,3.62
2023-01-17T14:38:10.282Z,3.58
2023-01-17T14:40:38.960Z,3.57
2023-01-17T14:43:14.337Z,3.56
2023-01-17T14:45:43.610Z,3.60
2023-01-17T14:48:20.088Z,3.51
2023-01-17T14:50:49.351Z,3.41
2023-01-17T14:53:19.195Z,3.40
2023-01-17T14:55:49.230Z,3.38
2023-01-17T14:58:19.667Z,3.33
2023-01-17T15:00:50.133Z,3.33
2023-01-17T15:03:17.280Z,3.33
2023-01-17T15:05:47.740Z,3.29
2023-01-17T15:08:17.963Z,3.18
2023-01-17T15:10:59.208Z,3.10
2023-01-17T15:13:43.791Z,3.01
2023-01-17T15:16:27.587Z,3.05
2023-01-17T15:18:57.135Z,3.03
2023-01-17T15:21:30.138Z,3.02
2023-01-17T15:23:59.702Z,3.02
2023-01-17T15:26:30.127Z,3.02
2023-01-17T15:29:07.462Z,3.03
2023-01-17T15:31:41.982Z,2.98
2023-01-17T15:34:20.957Z,2.91
2023-01-17T15:36:49.556Z,2.88
2023-01-17T15:39:26.870Z,2.83
2023-01-17T15:41:56.589Z,2.80
2023-01-17T15:44:36.112Z,2.79
2023-01-17T15:47:38.811Z,2.66
2023-01-17T15:50:32.458Z,2.56
2023-01-17T15:53:05.825Z,2.49
2023-01-17T15:55:35.780Z,2.40
2023-01-17T15:58:03.228Z,2.36
2023-01-17T16:00:39.602Z,2.31
2023-01-17T16:03:29.156Z,2.30
2023-01-17T16:06:00.383Z,2.29
2023-01-17T16:08:28.471Z,2.28
2023-01-17T16:11:02.314Z,2.21
2023-01-17T16:13:31.317Z,2.14
2023-01-17T16:16:23.830Z,2.02
2023-01-17T16:18:58.275Z,2.02
2023-01-17T16:21:28.517Z,2.01
2023-01-17T16:23:55.411Z,1.97
2023-01-17T16:26:23.312Z,1.97
2023-01-17T16:28:50.432Z,1.95
2023-01-17T16:31:18.622Z,1.93
2023-01-17T16:33:46.169Z,1.88
2023-01-17T16:36:15.564Z,1.84
2023-01-17T16:38:48.208Z,1.78
2023-01-17T16:41:15.579Z,1.74
2023-01-17T16:43:42.221Z,1.69
2023-01-17T16:46:11.498Z,1.64
2023-01-17T16:48:38.141Z,1.57
2023-01-17T16:51:07.232Z,1.48
2023-01-17T16:53:34.931Z,1.43
2023-01-17T16:56:12.311Z,1.36
2023-01-17T16:58:40.052Z,1.29
2023-01-17T17:01:16.225Z,1.23
2023-01-17T17:03:44.463Z,1.17
2023-01-17T17:06:12.021Z,1.12
2023-01-17T17:08:39.615Z,1.07
2023-01-17T17:11:21.586Z,1.01
2023-01-17T17:13:50.036Z,0.97
2023-01-17T17:16:30.096Z,0.87
2023-01-17T17:19:05.575Z,0.78
2023-01-17T17:21:34.663Z,0.69
2023-01-17T17:24:02.248Z,0.62
2023-01-17T17:26:36.843Z,0.59
2023-01-17T17:29:04.968Z,0.56
2023-01-17T17:31:32.378Z,0.54
2023-01-17T17:34:00.867Z,0.46
2023-01-17T17:36:28.211Z,0.36
2023-01-17T17:38:56.085Z,0.32
2023-01-17T17:41:31.332Z,0.25
2023-01-17T17:44:00.178Z,0.16
2023-01-17T17:46:29.457Z,0.10
2023-01-17T17:48:57.526Z,0.06
2023-01-17T17:51:33.378Z,-0.02
2023-01-17T17:54:05.931Z,-0.08
2023-01-17T17:56:33.713Z,-0.13
2023-01-17T17:59:01.550Z,-0.14
2023-01-17T18:01:29.181Z,-0.15
2023-01-17T18:04:00.382Z,-0.17
2023-01-17T18:06:27.883Z,-0.21
2023-01-17T18:08:54.468Z,-0.26
2023-01-17T18:11:24.570Z,-0.35
2023-01-17T18:13:52.351Z,-0.38
2023-01-17T18:16:30.365Z,-0.38
2023-01-17T18:18:59.025Z,-0.45
2023-01-17T18:21:32.699Z,-0.52
2023-01-17T18:24:20.448Z,-0.55
2023-01-17T18:26:49.860Z,-0.60
2023-01-17T18:29:17.653Z,-0.64
2023-01-17T18:31:46.101Z,-0.69
2023-01-17T18:34:15.092Z,-0.73
2023-01-17T18:36:43.807Z,-0.75
2023-01-17T18:39:14.645Z,-0.74
2023-01-17T18:41:42.047Z,-0.78
2023-01-17T18:44:09.690Z,-0.83
2023-01-17T18:46:37.657Z,-0.85
2023-01-17T18:49:04.897Z,-0.88
2023-01-17T18:51:34.460Z,-0.85
2023-01-17T18:54:04.914Z,-0.85
2023-01-17T18:56:35.658Z,-0.86
2023-01-17T18:59:05.748Z,-0.91
2023-01-17T19:01:35.921Z,-0.97
2023-01-17T19:04:04.420Z,-0.98
2023-01-17T19:06:34.791Z,-1.01
2023-01-17T19:09:02.596Z,-1.00
2023-01-17T19:11:30.947Z,-1.01
2023-01-17T19:13:57.552Z,-1.04
2023-01-17T19:16:30.624Z,-1.07
2023-01-17T19:19:01.570Z,-1.07
2023-01-17T19:21:29.599Z,-1.11
2023-01-17T19:23:57.921Z,-1.17
2023-01-17T19:26:27.167Z,-1.20
2023-01-17T19:28:56.155Z,-1.22
2023-01-17T19:31:28.441Z,-1.25
2023-01-17T19:33:57.407Z,-1.26
2023-01-17T19:36:31.908Z,-1.30
2023-01-17T19:39:04.889Z,-1.33
2023-01-17T19:41:34.845Z,-1.37
2023-01-17T19:44:04.742Z,-1.36
2023-01-17T19:46:32.968Z,-1.35
2023-01-17T19:49:00.224Z,-1.36
2023-01-17T19:51:28.096Z,-1.36
2023-01-17T19:53:55.253Z,-1.40
2023-01-17T19:56:25.687Z,-1.47
2023-01-17T19:58:53.058Z,-1.53
2023-01-17T20:01:29.615Z,-1.59
2023-01-17T20:03:58.379Z,-1.55
2023-01-17T20:06:28.832Z,-1.53
2023-01-17T20:08:55.877Z,-1.52
2023-01-17T20:11:24.934Z,-1.54
2023-01-17T20:13:55.249Z,-1.57
2023-01-17T20:16:25.158Z,-1.62
2023-01-17T20:18:53.022Z,-1.63
2023-01-17T20:21:29.987Z,-1.64
2023-01-17T20:24:00.435Z,-1.63
2023-01-17T20:26:36.368Z,-1.63
2023-01-17T20:29:09.937Z,-1.64
2023-01-17T20:31:38.683Z,-1.67
2023-01-17T20:34:07.992Z,-1.71
2023-01-17T20:36:35.179Z,-1.69
2023-01-17T20:39:04.596Z,-1.69
2023-01-17T20:41:32.918Z,-1.71
2023-01-17T20:44:01.396Z,-1.71
2023-01-17T20:46:32.415Z,-1.72
2023-01-17T20:49:01.121Z,-1.73
2023-01-17T20:51:31.065Z,-1.74
2023-01-17T20:53:59.152Z,-1.74
2023-01-17T20:56:27.513Z,-1.74
2023-01-17T20:58:54.849Z,-1.79
2023-01-17T21:01:22.759Z,-1.78
2023-01-17T21:03:51.666Z,-1.80
2023-01-17T21:06:20.938Z,-1.81
2023-01-17T21:08:48.686Z,-1.84
2023-01-17T21:11:18.944Z,-1.83
2023-01-17T21:13:47.172Z,-1.85
2023-01-17T21:16:16.723Z,-1.84
2023-01-17T21:18:48.801Z,-1.87
2023-01-17T21:21:18.792Z,-1.89
2023-01-17T21:23:45.810Z,-1.95
2023-01-17T21:26:14.856Z,-1.97
2023-01-17T21:28:43.774Z,-1.96
